createdAt,value
2023-03-29T00:02:03.628Z,3.00
2023-03-29T00:04:30.264Z,3.40
2023-03-29T00:06:57.374Z,3.50
2023-03-29T00:09:24.234Z,3.50
2023-03-29T00:11:51.047Z,3.10
2023-03-29T00:14:17.650Z,3.30
2023-03-29T00:16:44.157Z,3.40
2023-03-29T00:19:11.043Z,3.17
2023-03-29T00:21:37.819Z,3.13
2023-03-29T00:24:04.477Z,3.47
2023-03-29T00:26:30.957Z,3.40
2023-03-29T00:28:57.434Z,3.13
2023-03-29T00:31:24.053Z,3.30
2023-03-29T00:33:50.651Z,3.22
2023-03-29T00:36:17.188Z,3.30
2023-03-29T00:38:43.721Z,3.10
2023-03-29T00:41:10.499Z,3.25
2023-03-29T00:43:53.551Z,3.38
2023-03-29T00:46:20.172Z,3.30
2023-03-29T00:48:47.293Z,3.37
2023-03-29T00:51:16.821Z,3.33
2023-03-29T00:53:49.057Z,3.38
2023-03-29T00:56:24.602Z,3.17
2023-03-29T00:59:03.534Z,3.38
2023-03-29T01:04:43.494Z,3.30
2023-03-29T01:07:17.992Z,3.60
2023-03-29T01:09:50.851Z,3.50
2023-03-29T01:12:23.635Z,3.25
2023-03-29T01:14:59.482Z,3.30
2023-03-29T01:17:26.043Z,3.35
2023-03-29T01:19:59.290Z,3.60
2023-03-29T01:22:31.933Z,3.40
2023-03-29T01:25:10.461Z,3.50
2023-03-29T01:28:09.292Z,3.50
2023-03-29T01:30:48.216Z,3.33
2023-03-29T01:33:19.236Z,3.08
2023-03-29T01:35:54.780Z,3.80
2023-03-29T01:38:39.304Z,3.72
2023-03-29T01:41:05.893Z,3.10
2023-03-29T01:43:47.596Z,3.35
2023-03-29T01:46:37.400Z,3.10
2023-03-29T01:49:16.452Z,3.40
2023-03-29T01:52:28.265Z,3.55
2023-03-29T01:55:18.336Z,3.50
2023-03-29T01:57:46.641Z,3.70
2023-03-29T02:00:21.345Z,3.33
2023-03-29T02:02:51.489Z,3.63
2023-03-29T02:05:19.441Z,3.40
2023-03-29T02:07:47.568Z,3.53
2023-03-29T02:10:15.691Z,3.58
2023-03-29T02:12:42.450Z,3.67
2023-03-29T02:15:18.799Z,3.50
2023-03-29T02:17:46.573Z,3.50
2023-03-29T02:20:20.471Z,3.37
2023-03-29T02:22:51.074Z,3.63
2023-03-29T02:25:18.775Z,3.47
2023-03-29T02:27:45.992Z,3.50
2023-03-29T02:30:13.796Z,3.22
2023-03-29T02:32:51.973Z,3.50
2023-03-29T02:35:25.243Z,3.60
2023-03-29T02:37:54.461Z,3.55
2023-03-29T02:40:23.396Z,3.50
2023-03-29T02:42:50.301Z,3.63
2023-03-29T02:45:18.779Z,3.53
2023-03-29T02:47:51.332Z,3.90
2023-03-29T02:50:19.836Z,3.50
2023-03-29T02:53:00.406Z,3.65
2023-03-29T02:55:29.357Z,3.80
2023-03-29T02:57:55.817Z,3.77
2023-03-29T03:00:22.455Z,3.70
2023-03-29T03:02:49.193Z,4.00
2023-03-29T03:05:15.734Z,3.72
2023-03-29T03:07:42.369Z,3.75
2023-03-29T03:10:10.186Z,3.60
2023-03-29T03:12:37.033Z,3.60
2023-03-29T03:15:05.095Z,4.10
2023-03-29T03:17:32.854Z,3.63
2023-03-29T03:19:59.979Z,3.80
2023-03-29T03:22:26.425Z,3.63
2023-03-29T03:24:52.846Z,3.63
2023-03-29T03:27:19.345Z,3.65
2023-03-29T03:29:45.784Z,3.53
2023-03-29T03:32:12.382Z,4.25
2023-03-29T03:34:38.873Z,3.43
2023-03-29T03:37:05.395Z,3.53
2023-03-29T03:39:31.980Z,3.42
2023-03-29T03:41:58.465Z,3.63
2023-03-29T03:44:25.112Z,3.45
2023-03-29T03:46:51.569Z,4.00
2023-03-29T03:49:18.039Z,3.60
2023-03-29T03:51:44.544Z,3.47
2023-03-29T03:54:11.243Z,3.85
2023-03-29T03:56:37.764Z,3.70
2023-03-29T03:59:05.393Z,3.57
2023-03-29T04:01:31.904Z,3.70
2023-03-29T04:03:58.432Z,3.70
2023-03-29T04:06:25.002Z,3.42
2023-03-29T04:08:51.472Z,3.80
2023-03-29T04:11:17.935Z,3.60
2023-03-29T04:13:44.385Z,3.70
2023-03-29T04:16:10.979Z,4.00
2023-03-29T04:18:37.627Z,4.00
2023-03-29T04:21:04.607Z,3.80
2023-03-29T04:23:31.193Z,3.70
2023-03-29T04:25:57.634Z,4.18
2023-03-29T04:28:24.069Z,3.90
2023-03-29T04:30:50.520Z,4.40
2023-03-29T04:33:16.992Z,4.25
2023-03-29T04:35:43.496Z,3.87
2023-03-29T04:38:10.002Z,4.20
2023-03-29T04:40:37.243Z,4.25
2023-03-29T04:43:04.253Z,3.90
2023-03-29T04:45:30.750Z,3.92
2023-03-29T04:47:58.209Z,3.80
2023-03-29T04:50:25.034Z,4.32
2023-03-29T04:52:51.472Z,4.28
2023-03-29T04:55:17.933Z,4.47
2023-03-29T04:57:44.450Z,4.32
2023-03-29T05:00:11.481Z,4.30
2023-03-29T05:02:38.029Z,4.40
2023-03-29T05:05:04.932Z,4.10
2023-03-29T05:07:31.575Z,4.45
2023-03-29T05:09:58.032Z,4.40
2023-03-29T05:12:24.537Z,4.60
2023-03-29T05:14:51.006Z,4.47
2023-03-29T05:17:17.524Z,4.43
2023-03-29T05:19:44.170Z,4.53
2023-03-29T05:22:10.615Z,4.70
2023-03-29T05:24:37.148Z,4.57
2023-03-29T05:27:03.772Z,4.45
2023-03-29T05:29:30.255Z,5.15
2023-03-29T05:31:56.761Z,5.00
2023-03-29T05:34:23.341Z,5.00
2023-03-29T05:36:49.884Z,5.07
2023-03-29T05:39:16.406Z,4.80
2023-03-29T05:41:43.089Z,4.68
2023-03-29T05:44:09.969Z,4.22
2023-03-29T05:46:36.516Z,4.68
2023-03-29T05:49:04.040Z,4.70
2023-03-29T05:51:30.480Z,5.05
2023-03-29T05:53:56.967Z,5.10
2023-03-29T05:56:23.358Z,4.78
2023-03-29T05:58:50.241Z,5.10
2023-03-29T06:01:17.237Z,5.17
2023-03-29T06:03:44.206Z,5.20
2023-03-29T06:06:12.352Z,4.93
2023-03-29T06:08:38.813Z,5.10
2023-03-29T06:11:06.787Z,5.28
2023-03-29T06:13:34.915Z,5.23
2023-03-29T06:16:01.661Z,5.60
2023-03-29T06:18:28.244Z,5.13
2023-03-29T06:20:54.884Z,5.22
2023-03-29T06:23:22.666Z,5.40
2023-03-29T06:25:49.886Z,5.37
2023-03-29T06:28:16.324Z,5.78
2023-03-29T06:30:43.548Z,5.25
2023-03-29T06:33:10.297Z,5.45
2023-03-29T06:35:37.362Z,5.47
2023-03-29T06:38:04.248Z,5.93
2023-03-29T06:40:31.532Z,5.32
2023-03-29T06:42:58.388Z,5.38
2023-03-29T06:45:27.485Z,5.40
2023-03-29T06:47:55.784Z,5.72
2023-03-29T06:50:22.533Z,5.60
2023-03-29T06:52:49.923Z,5.47
2023-03-29T06:55:16.559Z,5.43
2023-03-29T06:57:43.216Z,5.25
2023-03-29T07:00:10.905Z,5.10
2023-03-29T07:02:37.616Z,5.27
2023-03-29T07:05:04.427Z,5.32
2023-03-29T07:07:30.956Z,5.05
2023-03-29T07:09:57.413Z,5.95
2023-03-29T07:12:24.149Z,5.60
2023-03-29T07:14:50.629Z,5.40
2023-03-29T07:17:17.136Z,5.40
2023-03-29T07:19:43.633Z,5.53
2023-03-29T07:22:10.127Z,5.63
2023-03-29T07:24:36.656Z,6.28
2023-03-29T07:27:04.517Z,6.03
2023-03-29T07:29:32.339Z,5.40
2023-03-29T07:31:59.031Z,5.55
2023-03-29T07:34:25.683Z,6.00
2023-03-29T07:36:52.140Z,5.93
2023-03-29T07:39:18.598Z,5.60
2023-03-29T07:41:45.129Z,5.80
2023-03-29T07:44:11.640Z,5.88
2023-03-29T07:46:38.202Z,5.82
2023-03-29T07:49:04.653Z,6.18
2023-03-29T07:51:31.174Z,6.00
2023-03-29T07:53:57.628Z,6.28
2023-03-29T07:56:24.229Z,6.45
2023-03-29T07:58:50.719Z,6.55
2023-03-29T08:01:19.393Z,6.60
2023-03-29T08:03:46.249Z,6.70
2023-03-29T08:06:12.672Z,6.35
2023-03-29T08:08:39.071Z,6.85
2023-03-29T08:11:05.710Z,6.43
2023-03-29T08:13:32.292Z,6.75
2023-03-29T08:15:58.728Z,6.93
2023-03-29T08:18:25.209Z,6.78
2023-03-29T08:20:51.758Z,6.60
2023-03-29T08:23:18.271Z,6.80
2023-03-29T08:25:46.316Z,6.68
2023-03-29T08:28:12.990Z,6.43
2023-03-29T08:30:39.534Z,7.10
2023-03-29T08:33:06.109Z,7.13
2023-03-29T08:35:32.659Z,6.93
2023-03-29T08:37:59.113Z,7.35
2023-03-29T08:40:28.222Z,7.20
2023-03-29T08:43:12.369Z,7.65
2023-03-29T08:45:56.433Z,7.38
2023-03-29T08:48:33.636Z,7.53
2023-03-29T08:51:05.209Z,7.93
2023-03-29T08:53:45.342Z,9.63
2023-03-29T08:56:16.778Z,9.73
2023-03-29T08:58:45.145Z,9.55
2023-03-29T09:01:11.932Z,10.80
2023-03-29T09:03:50.278Z,10.50
2023-03-29T09:06:20.145Z,11.03
2023-03-29T09:08:49.188Z,11.10
2023-03-29T09:11:24.639Z,12.20
2023-03-29T09:14:09.339Z,12.52
2023-03-29T09:16:50.781Z,11.55
2023-03-29T09:19:37.415Z,11.60
2023-03-29T09:22:12.840Z,11.80
2023-03-29T09:25:06.015Z,13.00
2023-03-29T09:27:58.569Z,12.43
2023-03-29T09:30:50.562Z,12.40
2023-03-29T09:33:25.261Z,13.13
2023-03-29T09:36:04.043Z,13.35
2023-03-29T09:38:31.104Z,13.50
2023-03-29T09:41:10.379Z,14.07
2023-03-29T09:43:41.217Z,13.15
2023-03-29T09:46:16.880Z,14.00
2023-03-29T09:48:45.581Z,15.18
2023-03-29T09:51:14.097Z,15.77
2023-03-29T09:53:40.643Z,14.40
2023-03-29T09:56:07.730Z,14.40
2023-03-29T09:58:34.820Z,14.10
2023-03-29T10:01:06.368Z,14.60
2023-03-29T10:03:33.297Z,14.48
2023-03-29T10:06:01.059Z,12.95
2023-03-29T10:08:56.018Z,12.10
2023-03-29T10:11:31.637Z,10.80
2023-03-29T10:14:02.838Z,10.75
2023-03-29T10:16:33.875Z,9.68
2023-03-29T10:19:20.036Z,9.35
2023-03-29T10:21:51.196Z,10.20
2023-03-29T10:24:22.840Z,9.70
2023-03-29T10:26:55.640Z,10.20
2023-03-29T10:29:24.704Z,9.23
2023-03-29T10:31:52.512Z,10.07
2023-03-29T10:34:20.084Z,10.88
2023-03-29T10:36:59.639Z,10.47
2023-03-29T10:39:29.645Z,10.07
2023-03-29T10:41:58.897Z,10.70
2023-03-29T10:44:33.236Z,10.68
2023-03-29T10:47:20.451Z,10.77
2023-03-29T10:49:55.035Z,10.57
2023-03-29T10:52:23.047Z,10.57
2023-03-29T10:54:52.593Z,10.95
2023-03-29T10:57:38.208Z,9.95
2023-03-29T11:00:17.605Z,10.77
2023-03-29T11:03:11.560Z,10.67
2023-03-29T11:05:59.165Z,10.65
2023-03-29T11:08:51.875Z,11.77
2023-03-29T11:11:54.178Z,10.10
2023-03-29T11:14:54.250Z,11.50
2023-03-29T11:17:35.441Z,11.20
2023-03-29T11:20:26.619Z,11.90
2023-03-29T11:23:26.053Z,10.82
2023-03-29T11:25:57.897Z,11.00
2023-03-29T11:28:38.537Z,10.90
2023-03-29T11:31:18.176Z,10.30
2023-03-29T11:34:12.612Z,10.00
2023-03-29T11:36:47.758Z,9.80
2023-03-29T11:39:28.087Z,8.68
2023-03-29T11:42:01.386Z,9.13
2023-03-29T11:44:30.555Z,9.33
2023-03-29T11:46:56.992Z,8.98
2023-03-29T11:49:29.217Z,8.30
2023-03-29T11:52:01.685Z,8.20
2023-03-29T11:54:50.369Z,8.52
2023-03-29T11:57:38.479Z,7.70
2023-03-29T12:00:11.257Z,8.07
2023-03-29T12:02:42.488Z,7.30
2023-03-29T12:05:22.266Z,9.95
2023-03-29T12:08:04.465Z,7.47
2023-03-29T12:10:37.649Z,7.50
2023-03-29T12:13:19.426Z,7.80
2023-03-29T12:15:52.702Z,7.30
2023-03-29T12:18:29.178Z,7.70
2023-03-29T12:21:06.786Z,7.07
2023-03-29T12:23:33.851Z,7.40
2023-03-29T12:26:03.288Z,7.90
2023-03-29T12:29:03.462Z,7.32
2023-03-29T12:31:55.042Z,7.25
2023-03-29T12:34:42.225Z,6.72
2023-03-29T12:37:08.757Z,6.90
2023-03-29T12:39:36.884Z,6.78
2023-03-29T12:42:23.712Z,7.05
2023-03-29T12:44:58.155Z,6.93
2023-03-29T12:47:27.447Z,7.60
2023-03-29T12:49:56.616Z,7.70
2023-03-29T12:52:30.023Z,7.70
2023-03-29T12:54:59.921Z,7.72
2023-03-29T12:57:46.945Z,6.78
2023-03-29T13:00:27.461Z,6.38
2023-03-29T13:03:34.592Z,5.93
2023-03-29T13:06:04.284Z,5.55
2023-03-29T13:08:40.414Z,6.35
2023-03-29T13:11:13.064Z,5.95
2023-03-29T13:13:41.655Z,7.53
2023-03-29T13:16:20.200Z,8.20
2023-03-29T13:18:55.431Z,8.50
2023-03-29T13:21:39.152Z,8.80
2023-03-29T13:24:23.506Z,8.07
2023-03-29T13:27:17.212Z,7.78
2023-03-29T13:30:03.885Z,7.93
2023-03-29T13:32:39.327Z,8.95
2023-03-29T13:35:17.126Z,7.80
2023-03-29T13:38:02.376Z,7.88
2023-03-29T13:40:41.024Z,8.02
2023-03-29T13:43:19.059Z,8.77
2023-03-29T13:46:16.082Z,8.43
2023-03-29T13:48:42.526Z,8.90
2023-03-29T13:51:23.064Z,8.18
2023-03-29T13:54:03.347Z,7.50
2023-03-29T13:56:40.164Z,7.50
2023-03-29T13:59:20.426Z,7.57
2023-03-29T14:01:51.381Z,6.97
2023-03-29T14:04:24.366Z,6.10
2023-03-29T14:06:54.379Z,5.40
2023-03-29T14:09:27.078Z,4.70
2023-03-29T14:11:54.097Z,4.30
2023-03-29T14:14:26.985Z,4.15
2023-03-29T14:16:56.257Z,4.43
2023-03-29T14:19:35.106Z,4.75
2023-03-29T14:22:06.909Z,4.40
2023-03-29T14:24:45.530Z,4.78
2023-03-29T14:27:12.277Z,4.50
2023-03-29T14:29:38.946Z,4.20
2023-03-29T14:32:29.517Z,4.15
2023-03-29T14:34:56.011Z,3.37
2023-03-29T14:37:26.917Z,3.50
2023-03-29T14:39:54.341Z,3.40
2023-03-29T14:42:25.683Z,3.65
2023-03-29T14:45:06.363Z,3.80
2023-03-29T14:47:33.773Z,3.33
2023-03-29T14:50:01.020Z,3.00
2023-03-29T14:52:29.825Z,3.15
2023-03-29T14:54:59.362Z,3.08
2023-03-29T14:57:27.898Z,2.75
2023-03-29T14:59:59.997Z,3.17
2023-03-29T15:02:31.956Z,3.30
2023-03-29T15:05:02.440Z,3.60
2023-03-29T15:07:29.831Z,3.80
2023-03-29T15:09:58.111Z,3.70
2023-03-29T15:12:25.314Z,3.60
2023-03-29T15:14:52.830Z,3.78
2023-03-29T15:17:47.664Z,3.70
2023-03-29T15:20:29.433Z,4.20
2023-03-29T15:22:58.112Z,4.10
2023-03-29T15:25:28.099Z,3.97
2023-03-29T15:27:59.037Z,4.05
2023-03-29T15:30:38.063Z,3.95
2023-03-29T15:33:09.550Z,3.88
2023-03-29T15:35:36.948Z,4.20
2023-03-29T15:38:03.417Z,4.00
2023-03-29T15:40:30.275Z,4.03
2023-03-29T15:42:56.938Z,4.00
2023-03-29T15:45:23.468Z,3.70
2023-03-29T15:47:50.043Z,3.67
2023-03-29T15:50:16.725Z,4.00
2023-03-29T15:52:43.315Z,3.95
2023-03-29T15:55:10.334Z,3.88
2023-03-29T15:57:37.146Z,4.00
2023-03-29T16:00:06.370Z,4.40
2023-03-29T16:02:33.092Z,4.57
2023-03-29T16:04:59.624Z,5.00
2023-03-29T16:07:26.126Z,4.53
2023-03-29T16:09:52.625Z,5.50
2023-03-29T16:12:19.181Z,5.03
2023-03-29T16:14:45.664Z,5.00
2023-03-29T16:17:12.165Z,5.40
2023-03-29T16:19:38.702Z,5.35
2023-03-29T16:22:05.386Z,5.45
2023-03-29T16:24:33.729Z,5.13
2023-03-29T16:27:01.223Z,5.30
2023-03-29T16:29:28.306Z,5.03
2023-03-29T16:31:54.952Z,4.97
2023-03-29T16:34:22.205Z,4.47
2023-03-29T16:36:49.702Z,4.75
2023-03-29T16:39:16.884Z,4.80
2023-03-29T16:41:43.548Z,4.90
2023-03-29T16:44:15.933Z,5.68
2023-03-29T16:46:42.444Z,4.80
2023-03-29T16:49:13.252Z,5.85
2023-03-29T16:51:40.543Z,4.90
2023-03-29T16:54:07.046Z,5.30
2023-03-29T16:56:33.530Z,5.30
2023-03-29T16:59:00.001Z,5.22
2023-03-29T17:01:26.514Z,5.65
2023-03-29T17:03:53.209Z,5.60
2023-03-29T17:06:19.724Z,5.53
2023-03-29T17:08:46.229Z,5.75
2023-03-29T17:11:12.964Z,5.70
2023-03-29T17:13:39.732Z,5.97
2023-03-29T17:16:06.880Z,6.20
2023-03-29T17:18:33.710Z,7.30
2023-03-29T17:21:00.312Z,6.13
2023-03-29T17:23:26.893Z,6.45
2023-03-29T17:25:56.437Z,6.03
2023-03-29T17:28:23.808Z,7.00
2023-03-29T17:30:50.384Z,6.15
2023-03-29T17:33:18.227Z,6.05
2023-03-29T17:35:46.427Z,6.05
2023-03-29T17:38:12.989Z,7.90
2023-03-29T17:40:39.507Z,7.90
2023-03-29T17:43:06.180Z,6.53
2023-03-29T17:45:32.727Z,6.70
2023-03-29T17:47:59.323Z,6.75
2023-03-29T17:50:25.899Z,6.82
2023-03-29T17:52:52.437Z,7.07
2023-03-29T17:55:19.101Z,7.03
2023-03-29T17:57:45.652Z,7.13
2023-03-29T18:00:14.358Z,7.07
2023-03-29T18:02:41.463Z,6.53
2023-03-29T18:05:08.898Z,6.97
2023-03-29T18:07:35.882Z,7.10
2023-03-29T18:10:02.668Z,7.38
2023-03-29T18:12:29.471Z,7.07
2023-03-29T18:14:56.108Z,7.07
2023-03-29T18:17:23.764Z,6.73
2023-03-29T18:19:50.345Z,6.38
2023-03-29T18:22:16.983Z,6.80
2023-03-29T18:24:43.665Z,6.75
2023-03-29T18:27:10.312Z,6.80
2023-03-29T18:29:37.327Z,6.60
2023-03-29T18:32:04.526Z,6.72
2023-03-29T18:34:32.396Z,6.65
2023-03-29T18:36:59.084Z,6.70
2023-03-29T18:39:25.695Z,6.43
2023-03-29T18:41:52.184Z,6.50
2023-03-29T18:44:18.941Z,6.30
2023-03-29T18:46:45.411Z,6.20
2023-03-29T18:49:11.966Z,6.70
2023-03-29T18:51:38.612Z,6.38
2023-03-29T18:54:05.529Z,6.87
2023-03-29T18:56:32.131Z,6.93
2023-03-29T18:58:58.614Z,6.60
2023-03-29T19:01:25.977Z,7.53
2023-03-29T19:03:52.441Z,7.90
2023-03-29T19:06:19.131Z,6.90
2023-03-29T19:08:45.640Z,6.05
2023-03-29T19:11:12.617Z,6.35
2023-03-29T19:13:39.122Z,6.82
2023-03-29T19:16:06.298Z,9.13
2023-03-29T19:18:33.452Z,6.80
2023-03-29T19:21:00.194Z,6.80
2023-03-29T19:23:26.904Z,5.80
2023-03-29T19:25:58.968Z,6.95
2023-03-29T19:28:26.227Z,6.38
2023-03-29T19:30:53.106Z,6.90
2023-03-29T19:33:19.988Z,6.78
2023-03-29T19:35:49.266Z,7.10
2023-03-29T19:38:15.896Z,7.90
2023-03-29T19:40:46.835Z,7.63
2023-03-29T19:43:13.589Z,7.57
2023-03-29T19:45:40.073Z,8.25
2023-03-29T19:48:06.815Z,8.80
2023-03-29T19:50:33.272Z,8.55
2023-03-29T19:52:59.869Z,7.90
2023-03-29T19:55:26.435Z,7.13
2023-03-29T19:57:52.897Z,7.60
2023-03-29T20:00:19.820Z,6.57
2023-03-29T20:02:46.305Z,6.82
2023-03-29T20:05:13.002Z,6.65
2023-03-29T20:07:39.493Z,6.10
2023-03-29T20:10:06.420Z,6.20
2023-03-29T20:12:32.926Z,6.05
2023-03-29T20:14:59.440Z,5.85
2023-03-29T20:17:26.048Z,6.18
2023-03-29T20:19:52.617Z,5.93
2023-03-29T20:22:19.515Z,5.70
2023-03-29T20:24:46.030Z,5.95
2023-03-29T20:27:12.694Z,5.70
2023-03-29T20:29:39.309Z,5.30
2023-03-29T20:32:05.873Z,5.50
2023-03-29T20:34:32.412Z,5.38
2023-03-29T20:36:58.882Z,5.35
2023-03-29T20:39:25.984Z,5.28
2023-03-29T20:41:52.668Z,5.60
2023-03-29T20:44:20.345Z,5.20
2023-03-29T20:46:46.974Z,4.88
2023-03-29T20:49:13.563Z,5.60
2023-03-29T20:51:40.055Z,5.53
2023-03-29T20:54:06.878Z,5.40
2023-03-29T20:56:36.336Z,5.33
2023-03-29T20:59:02.820Z,5.57
2023-03-29T21:01:30.043Z,5.68
2023-03-29T21:03:56.746Z,5.50
2023-03-29T21:06:23.344Z,5.97
2023-03-29T21:08:51.421Z,5.43
2023-03-29T21:11:19.180Z,5.75
2023-03-29T21:13:46.272Z,6.00
2023-03-29T21:16:12.842Z,5.47
2023-03-29T21:18:40.236Z,5.43
2023-03-29T21:21:08.096Z,5.30
2023-03-29T21:23:36.320Z,5.72
2023-03-29T21:26:04.372Z,5.53
2023-03-29T21:28:31.120Z,5.53
2023-03-29T21:30:57.726Z,5.20
2023-03-29T21:33:24.399Z,5.97
2023-03-29T21:35:50.928Z,5.90
2023-03-29T21:38:17.724Z,5.47
2023-03-29T21:40:44.406Z,5.53
2023-03-29T21:43:11.012Z,5.32
2023-03-29T21:45:37.639Z,5.37
2023-03-29T21:48:04.476Z,5.10
2023-03-29T21:50:33.353Z,5.25
2023-03-29T21:53:01.589Z,5.43
2023-03-29T21:55:28.283Z,4.82
2023-03-29T21:57:55.085Z,5.00
2023-03-29T22:00:21.705Z,4.72
2023-03-29T22:02:49.477Z,4.95
2023-03-29T22:05:16.101Z,4.65
2023-03-29T22:07:42.681Z,4.47
2023-03-29T22:10:11.450Z,4.63
2023-03-29T22:12:39.175Z,4.35
2023-03-29T22:15:08.087Z,4.45
2023-03-29T22:17:34.975Z,4.35
2023-03-29T22:20:01.664Z,4.55
2023-03-29T22:22:28.729Z,4.50
2023-03-29T22:24:55.349Z,4.13
2023-03-29T22:27:23.196Z,4.45
2023-03-29T22:29:49.931Z,4.88
2023-03-29T22:32:16.551Z,4.45
2023-03-29T22:34:43.216Z,4.00
2023-03-29T22:37:09.709Z,3.78
2023-03-29T22:39:36.283Z,3.70
2023-03-29T22:42:02.909Z,3.20
2023-03-29T22:44:29.362Z,3.10
2023-03-29T22:46:55.868Z,2.80
2023-03-29T22:49:22.420Z,2.90
2023-03-29T22:51:48.920Z,2.47
2023-03-29T22:54:15.426Z,2.90
2023-03-29T22:56:41.915Z,2.97
2023-03-29T22:59:08.643Z,2.40
2023-03-29T23:01:35.146Z,2.50
2023-03-29T23:04:01.634Z,2.60
2023-03-29T23:06:28.144Z,2.70
2023-03-29T23:08:54.586Z,2.50
2023-03-29T23:11:21.235Z,3.00
2023-03-29T23:13:47.648Z,2.70
2023-03-29T23:16:15.293Z,2.72
2023-03-29T23:18:41.781Z,2.97
2023-03-29T23:21:08.336Z,2.70
2023-03-29T23:23:35.290Z,2.73
2023-03-29T23:26:02.277Z,2.40
2023-03-29T23:28:29.395Z,2.40
2023-03-29T23:31:07.039Z,2.60
2023-03-29T23:33:35.763Z,2.50
2023-03-29T23:36:04.704Z,2.50
2023-03-29T23:38:33.101Z,2.47
2023-03-29T23:41:03.076Z,2.75
2023-03-29T23:43:33.022Z,2.50
2023-03-29T23:46:01.679Z,2.60
2023-03-29T23:48:28.556Z,2.60
2023-03-29T23:50:55.384Z,2.53
2023-03-29T23:53:21.818Z,2.63
2023-03-29T23:55:48.356Z,2.60
2023-03-29T23:58:16.065Z,2.38
